Latest Weather Observations for Middle Percy Island

IDQ60801

Issued at 10:32 pm EST Thursday 26 May 2016 (issued every 30 minutes, with the page automatically refreshed every 10 minutes)

About weather observations | Map of weather stations | Latest weather observations for QLD | Other Formats
Station Details ID: 200001 Name: MIDDLE PERCY ISLAND Lat: -21.66 Lon: 150.27 Height: 208.7 m
Data from the previous 72 hours. | See also: Recent months at Middle Percy Island
Date/Time
EST
Temp
°C
App
Temp
°C
Dew
Point
Rel
Hum
%
Delta-T
°C
Wind Press
QNH
hPa
Press
MSL
hPa
Rain
since 9 am
mm
Dir
 
Spd
km/h
Gust
km/h
Spd
kts
Gust
kts
26/10:30pm 22.7 21.5 19.3 81 2.2 N 24 39 13 21 1014.7 1013.9 0.0
26/10:00pm 22.6 21.8 19.2 81 2.2 N 22 33 12 18 1015.0 1014.2 0.0
26/09:30pm 22.6 21.8 19.2 81 2.2 N 22 32 12 17 1015.1 1014.3 0.0
26/09:00pm 22.7 21.8 19.1 80 2.3 N 22 32 12 17 1015.4 1014.5 0.0
26/08:30pm 22.6 22.1 19.0 80 2.3 N 20 30 11 16 1015.6 1014.7 0.0
26/08:00pm 22.6 22.0 18.8 79 2.4 N 20 30 11 16 1015.7 1014.8 0.0
26/07:30pm 22.5 22.0 18.7 79 2.4 N 19 24 10 13 1015.6 1014.7 0.0
26/07:00pm 22.5 22.8 18.7 79 2.4 N 15 22 8 12 1015.2 1014.4 0.0
26/06:30pm 22.5 23.1 18.5 78 2.5 N 13 17 7 9 1015.0 1014.2 0.0
26/06:00pm 22.5 22.6 18.3 77 2.7 N 15 24 8 13 1014.4 1013.6 0.0
26/05:30pm 22.6 21.8 17.9 75 3.0 N 19 26 10 14 1013.9 1013.1 0.0
26/05:00pm 23.1 22.6 17.8 72 3.3 N 17 28 9 15 1013.8 1013.0 0.0
26/04:30pm 23.5 23.0 17.9 71 3.5 N 17 30 9 16 1013.6 1012.8 0.0
26/04:00pm 24.1 23.5 18.5 71 3.6 N 19 28 10 15 1013.5 1012.7 0.0
26/03:30pm 24.5 23.8 18.2 68 4.0 N 19 26 10 14 1014.0 1013.2 0.0
26/03:00pm 24.9 25.0 18.4 67 4.1 N 15 24 8 13 1014.6 1013.8 0.0
26/02:30pm 24.9 24.5 18.1 66 4.3 N 17 24 9 13 1014.8 1014.0 0.0
26/02:00pm 25.1 24.5 18.5 67 4.2 N 19 24 10 13 1015.2 1014.4 0.0
26/01:30pm 24.9 24.5 18.1 66 4.3 N 17 22 9 12 1015.7 1014.8 0.0
26/01:00pm 25.2 25.9 19.6 71 3.6 N 15 22 8 12 1016.0 1015.1 0.0
26/12:30pm 24.4 24.4 18.1 68 4.0 NNE 15 19 8 10 1016.2 1015.3 0.0
26/12:00pm 25.5 26.0 19.2 68 4.1 N 15 22 8 12 1016.8 1016.0 0.0
26/11:30am 25.2 26.1 19.3 70 3.8 N 13 19 7 10 1017.2 1016.4 0.0
26/11:00am 24.7 25.1 19.1 71 3.6 N 15 20 8 11 1017.5 1016.7 0.0
26/10:30am 24.9 26.1 19.1 70 3.7 N 11 19 6 10 1017.7 1016.9 0.0
26/10:00am 24.7 25.5 19.1 71 3.6 NNE 13 20 7 11 1017.8 1017.0 0.0
26/09:30am 24.6 25.7 18.8 70 3.7 N 11 17 6 9 1018.2 1017.4 0.0
26/09:00am 24.7 26.6 19.8 74 3.2 N 9 15 5 8 1018.4 1017.6 0.0
26/08:30am 23.6 24.8 19.1 76 2.9 N 11 15 6 8 1018.3 1017.5 0.0
26/08:00am 22.8 24.8 19.2 80 2.3 N 7 11 4 6 1018.3 1017.5 0.0
26/07:30am 22.2 23.5 19.2 83 1.9 N 11 13 6 7 1017.8 1017.0 0.0
26/07:00am 21.2 22.7 18.9 87 1.5 NNE 9 11 5 6 1017.7 1016.9 0.0
26/06:30am 20.8 22.2 18.7 88 1.3 NNE 9 11 5 6 1017.5 1016.7 0.0
26/06:00am 20.6 21.6 18.7 89 1.2 N 11 13 6 7 1017.1 1016.3 0.0
26/05:30am 20.8 22.2 18.6 87 1.4 N 9 11 5 6 1017.1 1016.3 0.0
26/05:00am 20.8 22.2 18.6 87 1.4 N 9 15 5 8 1016.9 1016.1 0.0
26/04:30am 20.8 21.4 18.7 88 1.3 N 13 15 7 8 1016.7 1015.9 0.0
26/04:00am 20.6 21.5 18.4 87 1.4 N 11 17 6 9 1016.7 1015.9 0.0
26/03:30am 20.9 21.1 18.5 86 1.5 N 15 17 8 9 1016.9 1016.1 0.0
26/03:00am 20.6 21.1 18.4 87 1.4 N 13 19 7 10 1017.0 1016.2 0.0
26/02:30am 20.9 21.8 18.5 86 1.5 N 11 13 6 7 1017.3 1016.5 0.0
26/02:00am 21.1 21.3 18.5 85 1.6 N 15 20 8 11 1017.2 1016.4 0.0
26/01:30am 21.1 22.7 18.3 84 1.8 N 7 13 4 7 1017.5 1016.7 0.0
26/01:00am 21.5 22.1 18.7 84 1.8 N 13 20 7 11 1017.6 1016.8 0.0
26/12:30am 21.6 21.9 18.8 84 1.8 N 15 20 8 11 1017.7 1016.9 0.0
26/12:00am 21.7 21.6 18.7 83 1.9 N 17 22 9 12 1017.8 1017.0 0.0
 
Date/Time
EST
Temp
°C
App
Temp
°C
Dew
Point
Rel
Hum
%
Delta-T
°C
Wind Press
QNH
hPa
Press
MSL
hPa
Rain
since 9 am
mm
Dir
 
Spd
km/h
Gust
km/h
Spd
kts
Gust
kts
25/11:30pm 21.7 21.6 18.7 83 1.9 NNE 17 22 9 12 1017.8 1017.0 0.0
25/11:00pm 21.6 21.9 18.8 84 1.8 NNE 15 20 8 11 1018.1 1017.3 0.0
25/10:30pm 21.7 22.1 19.1 85 1.7 NNE 15 20 8 11 1018.3 1017.5 0.0
25/10:00pm 21.6 22.4 19.0 85 1.7 NNE 13 17 7 9 1018.4 1017.6 0.0
25/09:30pm 21.6 23.3 19.3 87 1.5 NNE 9 15 5 8 1018.5 1017.7 0.0
25/09:00pm 21.6 22.9 19.2 86 1.5 NE 11 15 6 8 1018.5 1017.7 0.0
25/08:30pm 21.5 23.1 19.2 87 1.5 NE 9 13 5 7 1018.3 1017.5 0.0
25/08:00pm 21.7 23.8 19.3 86 1.5 ENE 7 11 4 6 1018.0 1017.2 0.0
25/07:30pm 21.8 23.8 19.2 85 1.7 NE 7 11 4 6 1017.7 1016.9 0.0
25/07:00pm 21.8 23.1 19.2 85 1.7 NE 11 15 6 8 1017.4 1016.6 0.0
25/06:30pm 21.8 23.1 19.2 85 1.7 ENE 11 15 6 8 1016.9 1016.1 0.0
25/06:00pm 21.8 23.0 19.0 84 1.8 E 11 15 6 8 1016.6 1015.8 0.0
25/05:30pm 22.1 23.3 19.1 83 1.9 E 11 17 6 9 1016.4 1015.6 0.0
25/05:00pm 22.5 24.0 18.9 80 2.3 E 9 15 5 8 1016.5 1015.7 0.0
25/04:30pm 23.3 25.0 18.4 74 3.1 ESE 7 13 4 7 1016.3 1015.4 0.0
25/04:00pm 23.6 24.1 18.3 72 3.4 SE 13 20 7 11 1016.0 1015.1 0.0
25/03:30pm 24.0 24.5 18.4 71 3.6 SE 13 20 7 11 1016.0 1015.1 0.0
25/03:00pm 24.4 25.1 18.8 71 3.6 ESE 13 19 7 10 1016.1 1015.2 0.0
25/02:30pm 24.4 25.2 19.0 72 3.5 SE 13 17 7 9 1016.3 1015.4 0.0
25/02:00pm 24.5 25.3 19.1 72 3.5 SE 13 17 7 9 1016.3 1015.4 0.0
25/01:30pm 25.0 26.2 20.0 74 3.3 ESE 13 17 7 9 1016.7 1015.9 0.0
25/01:00pm 24.2 25.9 20.1 78 2.7 SE 11 15 6 8 1017.3 1016.5 0.0
25/12:30pm 23.4 24.4 19.5 79 2.5 SSE 13 17 7 9 1017.6 1016.8 0.0
25/12:00pm 23.5 25.1 20.0 81 2.3 S 11 15 6 8 1018.2 1017.4 0.0
25/11:30am 23.4 24.6 20.0 81 2.2 S 13 17 7 9 1018.6 1017.8 0.0
25/11:00am 23.2 25.0 20.3 84 1.9 SSE 11 15 6 8 1018.8 1018.0 0.0
25/10:30am 22.9 23.5 20.2 85 1.8 S 17 20 9 11 1018.8 1018.0 0.0
25/10:00am 22.9 23.7 20.6 87 1.5 S 17 20 9 11 1018.9 1018.1 0.0
25/09:30am 22.7 23.7 20.2 86 1.6 SSE 15 20 8 11 1018.8 1018.0 0.0
25/09:00am 23.0 24.3 20.1 84 1.9 SSE 13 17 7 9 1018.9 1018.1 0.0
25/08:30am 22.4 23.8 20.3 88 1.4 S 13 17 7 9 1018.6 1017.8 0.0
25/08:00am 22.3 23.7 20.4 89 1.2 S 13 19 7 10 1018.4 1017.6 0.0
25/07:30am 21.9 23.2 19.3 85 1.7 S 11 15 6 8 1018.3 1017.5 0.0
25/07:00am 21.5 23.5 19.1 86 1.5 SSE 7 9 4 5 1017.8 1017.0 0.0
25/06:30am 21.5 23.1 19.1 86 1.5 SSE 9 11 5 6 1017.3 1016.5 0.0
25/06:00am 21.3 22.8 19.0 87 1.5 SSE 9 9 5 5 1017.1 1016.3 0.0
25/05:30am 21.4 23.4 19.1 87 1.5 SE 7 7 4 4 1016.9 1016.1 0.0
25/05:00am 21.4 23.2 18.8 85 1.6 ESE 7 7 4 4 1016.8 1016.0 0.0
25/04:30am 21.3 23.3 18.7 85 1.6 E 6 7 3 4 1017.0 1016.2 0.0
25/04:00am 21.5 24.4 18.3 82 2.0 CALM 0 0 0 0 1016.8 1016.0 0.0
25/03:30am 21.7 24.6 18.3 81 2.1 CALM 0 0 0 0 1017.3 1016.5 0.0
25/03:00am 22.0 25.0 18.4 80 2.3 CALM 0 0 0 0 1017.4 1016.6 0.0
25/02:30am 21.8 24.8 18.4 81 2.1 CALM 0 0 0 0 1017.3 1016.5 0.0
25/02:00am 22.0 25.0 18.4 80 2.3 CALM 0 0 0 0 1017.7 1016.9 0.0
25/01:30am 22.0 25.0 18.4 80 2.3 CALM 0 0 0 0 1017.9 1017.1 0.0
25/01:00am 22.1 24.5 18.7 81 2.2 N 4 4 2 2 1018.0 1017.2 0.0
25/12:30am 21.5 23.1 18.3 82 2.0 N 7 9 4 5 1018.1 1017.3 0.0
25/12:00am 21.6 22.4 18.2 81 2.1 NNE 11 15 6 8 1018.1 1017.3 0.0
 
Date/Time
EST
Temp
°C
App
Temp
°C
Dew
Point
Rel
Hum
%
Delta-T
°C
Wind Press
QNH
hPa
Press
MSL
hPa
Rain
since 9 am
mm
Dir
 
Spd
km/h
Gust
km/h
Spd
kts
Gust
kts
24/11:30pm 21.4 21.8 18.2 82 2.0 NNE 13 15 7 8 1018.2 1017.4 0.0
24/11:00pm 21.8 22.6 18.2 80 2.3 NNE 11 13 6 7 1018.2 1017.4 0.0
24/10:30pm 22.1 23.4 18.5 80 2.3 NE 9 13 5 7 1018.3 1017.5 0.0
24/10:00pm 22.1 23.0 18.5 80 2.3 NE 11 15 6 8 1018.5 1017.7 0.0
24/09:30pm 22.0 23.0 18.6 81 2.2 NNE 11 13 6 7 1018.5 1017.7 0.0
24/09:00pm 22.1 23.5 18.7 81 2.2 NE 9 11 5 6 1018.6 1017.8 0.0
24/08:30pm 22.3 23.1 17.4 74 3.0 NE 9 13 5 7 1018.5 1017.7 0.0
24/08:00pm 22.2 22.8 17.6 75 2.9 ENE 11 11 6 6 1018.5 1017.7 0.0
24/07:30pm 22.2 22.7 16.5 70 3.5 E 9 11 5 6 1018.3 1017.5 0.0
24/07:00pm 22.3 23.1 17.2 73 3.2 ENE 9 9 5 5 1018.0 1017.2 0.0
24/06:30pm 22.2 25.1 19.0 82 2.0 N 2 4 1 2 1018.1 1017.3 0.0
24/06:00pm 22.0 23.5 18.8 82 2.0 N 9 9 5 5 1018.4 1017.6 0.0
24/05:30pm 21.9 23.7 18.7 82 2.0 NNE 7 7 4 4 1017.9 1017.1 0.0
24/05:00pm 22.6 25.8 18.8 79 2.4 CALM 0 0 0 0 1017.5 1016.7 0.0
24/04:30pm 23.5 25.8 16.8 66 4.1 CALM 0 0 0 0 1017.4 1016.6 0.0
24/04:00pm 23.6 26.4 18.0 71 3.5 CALM 0 0 0 0 1017.1 1016.3 0.0
24/03:30pm 23.6 26.5 18.3 72 3.4 CALM 0 2 0 1 1016.9 1016.1 0.0
24/03:00pm 24.0 25.5 18.0 69 3.8 S 7 9 4 5 1016.9 1016.1 0.0
24/02:30pm 24.0 24.9 18.4 71 3.6 S 11 17 6 9 1016.6 1015.8 0.0
24/02:00pm 24.1 24.9 19.0 73 3.3 SSW 13 19 7 10 1016.7 1015.9 0.0
24/01:30pm 24.1 25.1 18.7 72 3.5 SSW 11 17 6 9 1016.9 1016.1 0.0
24/01:00pm 24.2 24.8 18.6 71 3.6 S 13 17 7 9 1017.2 1016.4 0.0
24/12:30pm 25.0 26.2 19.1 70 3.8 S 11 17 6 9 1017.2 1016.4 0.0
24/12:00pm 24.3 24.9 18.5 70 3.7 S 13 19 7 10 1017.6 1016.8 0.0
24/11:30am 24.5 24.8 17.0 63 4.7 SSE 11 19 6 10 1018.1 1017.3 0.0
24/11:00am 24.5 25.1 16.7 61 4.8 SSE 9 17 5 9 1018.3 1017.5 0.0
24/10:30am 24.9 26.2 17.6 64 4.6 SE 7 13 4 7 1018.6 1017.8 0.0
24/10:00am 23.6 23.7 16.4 64 4.4 SSE 11 13 6 7 1019.1 1018.3 0.0
24/09:30am 23.3 23.9 16.8 67 4.0 SSE 9 15 5 8 1019.2 1018.4 0.0
24/09:00am 22.9 24.1 17.4 71 3.4 SSE 7 11 4 6 1019.2 1018.4 0.0
24/08:30am 22.6 23.2 16.9 70 3.5 SSE 9 13 5 7 1019.1 1018.3 0.0
24/08:00am 21.9 22.9 16.8 73 3.1 SE 7 13 4 7 1019.0 1018.2 0.0
24/07:30am 22.0 22.9 16.7 72 3.3 ESE 7 9 4 5 1018.7 1017.9 0.0
24/07:00am 21.5 22.2 16.2 72 3.2 ESE 7 9 4 5 1018.6 1017.8 0.0
24/06:30am 21.1 21.7 15.9 72 3.1 ESE 7 9 4 5 1018.5 1017.7 0.0
24/06:00am 21.1 21.7 15.9 72 3.1 SE 7 11 4 6 1018.3 1017.5 0.0
24/05:30am 21.1 21.8 16.1 73 3.0 ESE 7 11 4 6 1018.1 1017.3 0.0
24/05:00am 21.1 21.4 15.9 72 3.1 ESE 9 11 5 6 1018.0 1017.2 0.0
24/04:30am 21.0 21.7 16.0 73 3.0 SE 7 11 4 6 1018.2 1017.4 0.0
24/04:00am 20.9 21.2 16.1 74 2.9 SSE 9 13 5 7 1017.9 1017.1 0.0
24/03:30am 20.5 20.9 16.3 77 2.5 SSE 9 13 5 7 1018.2 1017.4 0.0
24/03:00am 21.2 21.6 16.2 73 3.0 SE 9 11 5 6 1018.1 1017.3 0.0
24/02:30am 21.1 21.8 16.1 73 3.0 SE 7 11 4 6 1018.3 1017.5 0.0
24/02:00am 21.1 21.9 16.3 74 2.9 SSE 7 13 4 7 1018.6 1017.8 0.0
24/01:30am 21.4 21.9 16.6 74 2.9 SSE 9 11 5 6 1018.8 1018.0 0.0
24/01:00am 21.4 22.1 16.1 72 3.2 SE 7 9 4 5 1019.2 1018.4 0.0
24/12:30am 21.3 22.2 16.5 74 2.9 SE 7 11 4 6 1019.1 1018.3 0.0
24/12:00am 21.5 22.2 16.2 72 3.2 SE 7 13 4 7 1019.3 1018.5 0.0
 
Date/Time
EST
Temp
°C
App
Temp
°C
Dew
Point
Rel
Hum
%
Delta-T
°C
Wind Press
QNH
hPa
Press
MSL
hPa
Rain
since 9 am
mm
Dir
 
Spd
km/h
Gust
km/h
Spd
kts
Gust
kts
23/11:30pm 21.6 22.3 17.0 75 2.8 SE 9 13 5 7 1019.2 1018.4 0.0
23/11:00pm 21.6 22.2 16.8 74 2.9 SE 9 15 5 8 1019.3 1018.5 0.0

Other Formats:

Comma delimited format used in spreadsheet applications
http://www.bom.gov.au/fwo/IDQ60801/IDQ60801.94372.axf

JavaScript Object Notation format (JSON) in row-major order
http://www.bom.gov.au/fwo/IDQ60801/IDQ60801.94372.json